Time;durP1;ratioP1;P1;durP2;ratioP2;P2;SDS_P1;SDS_P2;PMS_P1;PMS_P2;Temp;Humidity;BMP_temperature;BMP_pressure;BME280_temperature;BME280_humidity;BME280_pressure;Samples;Min_cycle;Max_cycle;Signal;HPM_P1;HPM_P2
2023/12/01 00:00:05;;;;;;;108.90;37.13;;;1.30;99.90;;;;;;5013904;28;20168;-70
2023/12/01 00:02:31;;;;;;;98.47;39.40;;;1.30;99.90;;;;;;5014066;28;20183;-70
2023/12/01 00:04:57;;;;;;;102.10;37.67;;;1.20;99.90;;;;;;5014138;28;20185;-70
2023/12/01 00:07:22;;;;;;;95.13;36.37;;;1.20;99.90;;;;;;5014091;28;20184;-70
2023/12/01 00:09:48;;;;;;;104.93;39.97;;;1.20;99.90;;;;;;5013821;28;20184;-70
2023/12/01 00:12:14;;;;;;;97.23;37.60;;;1.30;99.90;;;;;;5013381;28;20215;-70
2023/12/01 00:14:42;;;;;;;100.47;37.20;;;1.20;99.90;;;;;;5013754;28;20203;-70
2023/12/01 00:17:08;;;;;;;114.03;37.03;;;1.20;99.90;;;;;;5013165;28;20319;-70
2023/12/01 00:19:33;;;;;;;105.87;36.83;;;1.20;99.90;;;;;;5013768;28;20229;-70
2023/12/01 00:21:59;;;;;;;98.10;37.80;;;1.30;99.90;;;;;;5013651;28;20523;-70
2023/12/01 00:24:25;;;;;;;115.47;39.37;;;1.30;99.90;;;;;;5013907;28;20176;-70
2023/12/01 00:26:50;;;;;;;99.47;36.43;;;1.30;99.90;;;;;;5013585;28;20565;-70
2023/12/01 00:29:16;;;;;;;115.37;37.53;;;1.30;99.90;;;;;;5013206;28;20176;-70
2023/12/01 00:31:42;;;;;;;101.97;38.30;;;1.30;99.90;;;;;;5013433;28;20251;-70
2023/12/01 00:34:07;;;;;;;112.50;37.37;;;1.20;99.90;;;;;;5013401;28;20255;-70
2023/12/01 00:36:33;;;;;;;114.70;38.27;;;1.30;99.90;;;;;;5013398;28;20675;-70
2023/12/01 00:38:59;;;;;;;111.17;40.67;;;1.20;99.90;;;;;;5013147;28;20168;-70
2023/12/01 00:41:25;;;;;;;110.40;37.27;;;1.20;99.90;;;;;;5013124;28;20715;-70
2023/12/01 00:43:51;;;;;;;110.93;39.30;;;1.20;99.90;;;;;;5013337;28;20203;-70
2023/12/01 00:46:17;;;;;;;196.50;44.77;;;1.20;99.90;;;;;;5012819;28;20199;-70
2023/12/01 00:48:42;;;;;;;114.87;40.07;;;1.20;99.90;;;;;;5012683;28;20176;-70
2023/12/01 00:51:18;;;;;;;124.53;39.83;;;1.20;99.90;;;;;;5012586;28;20698;-70
2023/12/01 00:53:45;;;;;;;130.70;38.67;;;1.20;99.90;;;;;;5013024;28;20183;-70
2023/12/01 00:56:11;;;;;;;98.37;37.57;;;1.20;99.90;;;;;;5012700;28;20699;-70
2023/12/01 00:58:37;;;;;;;113.17;39.73;;;1.20;99.90;;;;;;5013063;28;20218;-70
2023/12/01 01:01:05;;;;;;;106.77;39.17;;;1.20;99.90;;;;;;5012765;28;20205;-70
2023/12/01 01:03:30;;;;;;;107.20;38.43;;;1.20;99.90;;;;;;5012984;28;20268;-70
2023/12/01 01:05:56;;;;;;;111.80;39.77;;;1.20;99.90;;;;;;5012865;28;20688;-70
2023/12/01 01:08:21;;;;;;;118.80;40.10;;;1.20;99.90;;;;;;5013036;28;20250;-70
2023/12/01 01:10:48;;;;;;;113.87;38.63;;;1.20;99.90;;;;;;5012688;28;20266;-70
2023/12/01 01:13:14;;;;;;;106.97;38.43;;;1.20;99.90;;;;;;5012675;28;20169;-70
2023/12/01 01:15:40;;;;;;;116.50;41.10;;;1.20;99.90;;;;;;5013438;28;20239;-70
2023/12/01 01:18:06;;;;;;;106.70;37.70;;;1.20;99.90;;;;;;5013128;28;20238;-70
2023/12/01 01:20:32;;;;;;;100.47;35.97;;;1.20;99.90;;;;;;5012160;28;20168;-69
2023/12/01 01:22:58;;;;;;;108.93;37.27;;;1.20;99.90;;;;;;5012475;28;20172;-70
2023/12/01 01:25:23;;;;;;;108.83;39.43;;;1.20;99.90;;;;;;5012430;28;20203;-70
2023/12/01 01:27:49;;;;;;;100.63;38.33;;;1.30;99.90;;;;;;5012444;28;20206;-70
2023/12/01 01:30:15;;;;;;;101.73;37.23;;;1.30;99.90;;;;;;5012365;28;20175;-70
2023/12/01 01:32:40;;;;;;;104.13;35.73;;;1.30;99.90;;;;;;5012302;28;20679;-70
2023/12/01 01:35:07;;;;;;;117.77;38.70;;;1.30;99.90;;;;;;5012294;28;20207;-70
2023/12/01 01:37:33;;;;;;;121.03;40.13;;;1.30;99.90;;;;;;5012068;28;20628;-70
2023/12/01 01:39:59;;;;;;;107.07;36.90;;;1.20;99.90;;;;;;5010572;28;20180;-70
2023/12/01 01:42:24;;;;;;;110.83;38.77;;;1.20;99.90;;;;;;5011708;28;20184;-70
2023/12/01 01:44:50;;;;;;;114.03;37.43;;;1.30;99.90;;;;;;5011862;28;20187;-69
2023/12/01 01:47:16;;;;;;;115.50;38.73;;;1.30;99.90;;;;;;5012001;28;20172;-70
2023/12/01 01:49:42;;;;;;;113.97;38.37;;;1.20;99.90;;;;;;5011758;28;20180;-70
2023/12/01 01:52:10;;;;;;;109.80;39.07;;;1.30;99.90;;;;;;5011721;28;20180;-70
2023/12/01 01:54:36;;;;;;;109.43;37.53;;;1.30;99.90;;;;;;5011991;28;20660;-70
2023/12/01 01:57:02;;;;;;;115.67;38.47;;;1.30;99.90;;;;;;5011681;28;20212;-70
2023/12/01 01:59:28;;;;;;;107.97;38.20;;;1.40;99.90;;;;;;5012339;28;20183;-70
2023/12/01 02:01:54;;;;;;;106.90;37.40;;;1.50;99.90;;;;;;5010899;28;20168;-70
2023/12/01 02:04:19;;;;;;;115.57;39.33;;;1.50;99.90;;;;;;5011996;28;20254;-70
2023/12/01 02:06:48;;;;;;;104.53;38.33;;;1.40;99.90;;;;;;5011570;28;20210;-70
2023/12/01 02:09:14;;;;;;;104.27;36.23;;;1.40;99.90;;;;;;5011584;28;20179;-70
2023/12/01 02:11:40;;;;;;;100.93;38.73;;;1.40;99.90;;;;;;5011625;28;20206;-70
2023/12/01 02:14:06;;;;;;;104.03;36.27;;;1.40;99.90;;;;;;5012492;28;20632;-70
2023/12/01 02:16:32;;;;;;;103.23;38.77;;;1.40;99.90;;;;;;5012565;28;20326;-70
2023/12/01 02:18:58;;;;;;;94.33;37.60;;;1.50;99.90;;;;;;5012192;28;20263;-70
2023/12/01 02:21:27;;;;;;;100.27;37.50;;;1.50;99.90;;;;;;5011539;28;20183;-70
2023/12/01 02:23:53;;;;;;;93.73;36.00;;;1.50;99.90;;;;;;5012120;28;20649;-70
2023/12/01 02:26:19;;;;;;;95.53;37.70;;;1.50;99.90;;;;;;5012279;28;20568;-70
2023/12/01 02:28:46;;;;;;;105.17;36.57;;;1.50;99.90;;;;;;5012505;28;20221;-70
2023/12/01 02:31:11;;;;;;;88.13;35.70;;;1.50;99.90;;;;;;5012396;28;20184;-70
2023/12/01 02:33:37;;;;;;;93.13;39.10;;;1.50;99.90;;;;;;5012080;28;20545;-70
2023/12/01 02:36:11;;;;;;;100.47;37.80;;;1.50;99.90;;;;;;5011991;28;20203;-70
2023/12/01 02:38:37;;;;;;;79.07;32.63;;;1.50;99.90;;;;;;5012192;28;20188;-70
2023/12/01 02:41:03;;;;;;;73.77;33.33;;;1.50;99.90;;;;;;5011866;28;20180;-70
2023/12/01 02:43:28;;;;;;;80.03;33.13;;;1.50;99.90;;;;;;5011523;28;20176;-70
2023/12/01 02:45:54;;;;;;;78.83;34.13;;;1.40;99.90;;;;;;5011690;28;20200;-70
2023/12/01 02:48:21;;;;;;;86.67;33.83;;;1.30;99.90;;;;;;5011439;28;20176;-70
2023/12/01 02:50:46;;;;;;;97.10;35.70;;;1.30;99.90;;;;;;5011611;28;20181;-70
2023/12/01 02:53:12;;;;;;;80.53;34.10;;;1.30;99.90;;;;;;5026780;28;20275;-70
2023/12/01 02:55:37;;;;;;;82.70;34.40;;;1.30;99.90;;;;;;5010810;28;20223;-70
2023/12/01 02:58:04;;;;;;;93.73;34.30;;;1.30;99.90;;;;;;5011442;28;20203;-71
2023/12/01 03:00:29;;;;;;;73.70;31.27;;;1.30;99.90;;;;;;5011319;28;20203;-70
2023/12/01 03:02:55;;;;;;;87.50;34.00;;;1.20;99.90;;;;;;5011209;28;20569;-70
2023/12/01 03:05:21;;;;;;;90.93;33.93;;;1.20;99.90;;;;;;5010896;28;20204;-70
2023/12/01 03:07:48;;;;;;;76.87;34.40;;;1.20;99.90;;;;;;5011360;28;20219;-70
2023/12/01 03:10:14;;;;;;;81.93;35.23;;;1.20;99.90;;;;;;5011063;28;20521;-70
2023/12/01 03:12:41;;;;;;;73.83;32.40;;;1.20;99.90;;;;;;5011898;28;20172;-70
2023/12/01 03:15:10;;;;;;;77.40;32.73;;;1.30;99.90;;;;;;5014679;28;20614;-70
2023/12/01 03:17:36;;;;;;;87.23;34.97;;;1.30;99.90;;;;;;5014413;28;20203;-70
2023/12/01 03:20:08;;;;;;;82.47;31.30;;;1.30;99.90;;;;;;5013988;28;20188;-70
2023/12/01 03:22:34;;;;;;;92.63;35.03;;;1.20;99.90;;;;;;5015111;28;20258;-70
2023/12/01 03:24:59;;;;;;;79.70;31.47;;;1.30;99.90;;;;;;5014715;28;20845;-70
2023/12/01 03:27:25;;;;;;;87.73;34.97;;;1.30;99.90;;;;;;5014426;28;20176;-70
2023/12/01 03:29:52;;;;;;;97.13;35.53;;;1.30;99.90;;;;;;5014372;28;20219;-70
2023/12/01 03:32:18;;;;;;;88.03;34.70;;;1.40;99.90;;;;;;5014034;28;20547;-70
2023/12/01 03:34:44;;;;;;;91.63;34.97;;;1.40;99.90;;;;;;5014126;28;20207;-70
2023/12/01 03:37:09;;;;;;;84.50;35.33;;;1.40;99.90;;;;;;5014199;28;20291;-70
2023/12/01 03:39:35;;;;;;;88.97;35.90;;;1.40;99.90;;;;;;5014269;28;20180;-70
2023/12/01 03:42:01;;;;;;;85.40;34.60;;;1.50;99.90;;;;;;5014263;28;20617;-70
2023/12/01 03:44:26;;;;;;;86.73;35.63;;;1.40;99.90;;;;;;5013934;28;20255;-70
2023/12/01 03:46:52;;;;;;;85.47;34.33;;;1.50;99.90;;;;;;5012723;28;20199;-70
2023/12/01 03:49:18;;;;;;;79.63;32.70;;;1.60;99.90;;;;;;5014125;28;20183;-70
2023/12/01 03:51:44;;;;;;;74.23;33.90;;;1.50;99.90;;;;;;5013763;28;20477;-70
2023/12/01 03:54:09;;;;;;;83.07;33.17;;;1.60;99.90;;;;;;5014090;28;20200;-70
2023/12/01 03:56:37;;;;;;;79.87;34.73;;;1.60;99.90;;;;;;5013866;28;20282;-70
2023/12/01 03:59:03;;;;;;;90.73;35.17;;;1.60;99.90;;;;;;5013760;28;20184;-70
2023/12/01 04:01:29;;;;;;;87.67;35.57;;;1.60;99.90;;;;;;5014123;28;20169;-70
2023/12/01 04:03:55;;;;;;;82.83;33.43;;;1.60;99.90;;;;;;5014168;28;20183;-70
2023/12/01 04:06:21;;;;;;;77.40;35.23;;;1.60;99.90;;;;;;5013779;28;20223;-70
2023/12/01 04:08:46;;;;;;;76.57;33.90;;;1.60;99.90;;;;;;5013656;28;20168;-70
2023/12/01 04:11:12;;;;;;;77.97;34.97;;;1.60;99.90;;;;;;5013490;28;20187;-70
2023/12/01 04:13:38;;;;;;;82.83;34.37;;;1.60;99.90;;;;;;5013348;28;20238;-70
2023/12/01 04:16:04;;;;;;;78.77;34.27;;;1.60;99.90;;;;;;5013445;28;20199;-70
2023/12/01 04:18:30;;;;;;;81.70;32.97;;;1.60;99.90;;;;;;5013783;28;20243;-70
2023/12/01 04:20:57;;;;;;;100.37;35.63;;;1.70;99.90;;;;;;5013260;28;20169;-70
2023/12/01 04:23:23;;;;;;;89.67;34.27;;;1.80;99.90;;;;;;5013512;28;20207;-70
2023/12/01 04:25:50;;;;;;;89.50;33.90;;;1.80;99.90;;;;;;5012367;28;20200;-70
2023/12/01 04:28:15;;;;;;;84.33;32.50;;;1.70;99.90;;;;;;5013583;28;20178;-70
2023/12/01 04:30:43;;;;;;;93.63;34.03;;;1.70;99.90;;;;;;5013107;28;20176;-70
2023/12/01 04:33:08;;;;;;;88.63;33.23;;;1.70;99.90;;;;;;5013273;28;20251;-70
2023/12/01 04:35:36;;;;;;;87.70;33.93;;;1.70;99.90;;;;;;5013127;28;20730;-70
2023/12/01 04:38:08;;;;;;;88.17;35.13;;;1.60;99.90;;;;;;5013139;28;20211;-71
2023/12/01 04:40:36;;;;;;;92.73;34.30;;;1.60;99.90;;;;;;5012724;28;20180;-70
2023/12/01 04:43:03;;;;;;;80.07;32.77;;;1.60;99.90;;;;;;5013085;28;20516;-70
2023/12/01 04:45:31;;;;;;;87.10;34.10;;;1.60;99.90;;;;;;5012588;28;20542;-69
2023/12/01 04:47:57;;;;;;;80.10;33.53;;;1.60;99.90;;;;;;5013273;28;20176;-70
2023/12/01 04:50:24;;;;;;;83.40;31.97;;;1.60;99.90;;;;;;5012796;28;20584;-70
2023/12/01 04:52:55;;;;;;;82.10;31.87;;;1.60;99.90;;;;;;5012588;28;20269;-70
2023/12/01 04:55:23;;;;;;;72.13;30.57;;;1.50;99.90;;;;;;5012896;28;20509;-70
2023/12/01 04:57:49;;;;;;;70.10;31.00;;;1.50;99.90;;;;;;5012769;28;20811;-70
2023/12/01 05:00:20;;;;;;;68.73;30.20;;;1.60;99.90;;;;;;5012627;28;20263;-70
2023/12/01 05:02:53;;;;;;;66.20;30.10;;;1.60;99.90;;;;;;5012904;28;20164;-70
2023/12/01 05:05:20;;;;;;;82.03;31.60;;;1.50;99.90;;;;;;5012611;28;20535;-69
2023/12/01 05:07:49;;;;;;;69.83;31.37;;;1.50;99.90;;;;;;5012526;28;20192;-70
2023/12/01 05:10:19;;;;;;;76.03;31.70;;;1.50;99.90;;;;;;5012349;28;20180;-69
2023/12/01 05:12:49;;;;;;;61.17;29.97;;;1.50;99.90;;;;;;5012631;28;20219;-70
2023/12/01 05:15:18;;;;;;;61.67;30.43;;;1.50;99.90;;;;;;5012445;28;20582;-70
2023/12/01 05:17:51;;;;;;;61.30;29.27;;;1.40;99.90;;;;;;5012249;28;20226;-70
2023/12/01 05:20:18;;;;;;;69.40;31.13;;;1.50;99.90;;;;;;5012207;28;20176;-70
2023/12/01 05:22:45;;;;;;;62.20;31.00;;;1.50;99.90;;;;;;5012608;28;20184;-70
2023/12/01 05:25:13;;;;;;;57.77;29.27;;;1.50;99.90;;;;;;5013851;28;20189;-70
2023/12/01 05:27:50;;;;;;;65.43;28.77;;;1.50;99.90;;;;;;5012354;28;20172;-70
2023/12/01 05:30:17;;;;;;;64.07;29.40;;;1.50;99.90;;;;;;5012031;28;20182;-70
2023/12/01 05:32:44;;;;;;;59.00;29.77;;;1.60;99.90;;;;;;5012289;28;20176;-70
2023/12/01 05:35:11;;;;;;;58.73;28.57;;;1.60;99.90;;;;;;5012330;28;20498;-69
2023/12/01 05:37:48;;;;;;;63.73;28.23;;;1.60;99.90;;;;;;5011393;28;20207;-70
2023/12/01 05:40:20;;;;;;;50.73;27.63;;;1.60;99.90;;;;;;5011807;28;20184;-69
2023/12/01 05:42:47;;;;;;;50.00;26.20;;;1.60;99.90;;;;;;5012355;28;20197;-70
2023/12/01 05:45:14;;;;;;;54.60;29.07;;;1.50;99.90;;;;;;5011774;28;20591;-70
2023/12/01 05:47:52;;;;;;;54.60;27.47;;;1.50;99.90;;;;;;5011993;28;20243;-70
2023/12/01 05:50:26;;;;;;;49.63;26.03;;;1.40;99.90;;;;;;5011542;28;20666;-70
2023/12/01 05:52:54;;;;;;;54.07;27.93;;;1.40;99.90;;;;;;5012269;28;20179;-70
2023/12/01 05:55:21;;;;;;;49.87;25.83;;;1.40;99.90;;;;;;5011918;28;20199;-70
2023/12/01 05:57:52;;;;;;;50.73;26.93;;;1.40;99.90;;;;;;5011963;28;20268;-70
2023/12/01 06:00:32;;;;;;;52.53;25.90;;;1.40;99.90;;;;;;5011669;28;20175;-70
2023/12/01 06:03:08;;;;;;;56.10;28.07;;;1.40;99.90;;;;;;5011643;28;20242;-70
2023/12/01 06:05:35;;;;;;;45.80;25.17;;;1.40;99.90;;;;;;5011489;28;20199;-70
2023/12/01 06:08:02;;;;;;;53.37;27.10;;;1.40;99.90;;;;;;5011547;28;20683;-69
2023/12/01 06:10:31;;;;;;;50.53;28.37;;;1.30;99.90;;;;;;5011323;28;20172;-70
2023/12/01 06:12:57;;;;;;;47.37;26.13;;;1.30;99.90;;;;;;5011507;28;20184;-70
2023/12/01 06:15:29;;;;;;;49.13;27.77;;;1.40;99.90;;;;;;5011512;28;20258;-69
2023/12/01 06:17:55;;;;;;;47.13;26.17;;;1.40;99.90;;;;;;5026332;28;20208;-70
2023/12/01 06:20:22;;;;;;;46.17;26.47;;;1.40;99.90;;;;;;5011207;28;20187;-70
2023/12/01 06:22:50;;;;;;;46.57;26.20;;;1.50;99.90;;;;;;5010606;28;20709;-70
2023/12/01 06:25:20;;;;;;;44.40;25.40;;;1.50;99.90;;;;;;5011187;28;20307;-70
2023/12/01 06:27:46;;;;;;;41.77;24.57;;;1.50;99.90;;;;;;5011440;28;20176;-70
2023/12/01 06:30:14;;;;;;;45.57;25.77;;;1.60;99.90;;;;;;5011211;28;20948;-70
2023/12/01 06:32:46;;;;;;;40.50;24.70;;;1.60;99.90;;;;;;5011430;28;20184;-70
2023/12/01 06:35:17;;;;;;;40.87;25.23;;;1.60;99.90;;;;;;5011248;28;20200;-70
2023/12/01 06:37:44;;;;;;;43.13;25.40;;;1.60;99.90;;;;;;5011341;28;20234;-70
2023/12/01 06:40:11;;;;;;;37.77;23.97;;;1.60;99.90;;;;;;5011155;28;20172;-70
2023/12/01 06:42:48;;;;;;;39.03;24.23;;;1.50;99.90;;;;;;5011192;28;20180;-70
2023/12/01 06:45:19;;;;;;;40.93;21.47;;;1.50;99.90;;;;;;5011438;28;20293;-70
2023/12/01 06:47:47;;;;;;;34.33;22.20;;;1.50;99.90;;;;;;5012489;28;20176;-70
2023/12/01 06:50:15;;;;;;;37.87;22.60;;;1.50;99.90;;;;;;5014919;28;20191;-70
2023/12/01 06:52:45;;;;;;;33.80;21.77;;;1.50;99.90;;;;;;5015231;28;20183;-70
2023/12/01 06:55:12;;;;;;;37.13;21.70;;;1.50;99.90;;;;;;5014900;28;20706;-70
2023/12/01 06:57:40;;;;;;;35.90;21.80;;;1.50;99.90;;;;;;5014744;28;20212;-70
2023/12/01 07:00:29;;;;;;;35.93;20.90;;;1.50;99.90;;;;;;5014660;28;20176;-70
2023/12/01 07:02:59;;;;;;;35.63;21.47;;;1.50;99.90;;;;;;5015034;28;20181;-70
2023/12/01 07:05:26;;;;;;;39.00;22.43;;;1.50;99.90;;;;;;5014779;28;20199;-70
2023/12/01 07:07:59;;;;;;;35.20;21.63;;;1.50;99.90;;;;;;5014653;28;20172;-70
2023/12/01 07:10:25;;;;;;;35.90;22.20;;;1.50;99.90;;;;;;5014679;28;20176;-70
2023/12/01 07:12:55;;;;;;;33.83;21.17;;;1.40;99.90;;;;;;5014397;28;20191;-70
2023/12/01 07:15:23;;;;;;;39.57;22.33;;;1.50;99.90;;;;;;5014724;28;20258;-70
2023/12/01 07:17:50;;;;;;;33.50;20.43;;;1.50;99.90;;;;;;5014884;28;20335;-69
2023/12/01 07:20:18;;;;;;;33.07;20.47;;;1.50;99.90;;;;;;5015111;28;20183;-69
2023/12/01 07:22:44;;;;;;;35.30;22.10;;;1.50;99.90;;;;;;5015921;28;20180;-69
2023/12/01 07:25:11;;;;;;;38.53;20.90;;;1.50;99.90;;;;;;5015501;28;20221;-69
2023/12/01 07:27:37;;;;;;;33.10;20.33;;;1.50;99.90;;;;;;5013241;28;20576;-69
2023/12/01 07:30:03;;;;;;;29.13;20.03;;;1.50;99.90;;;;;;5029300;28;20230;-69
2023/12/01 07:32:29;;;;;;;36.43;20.63;;;1.50;99.90;;;;;;5014032;28;20644;-69
2023/12/01 07:34:55;;;;;;;31.57;19.87;;;1.50;99.90;;;;;;5013535;28;20227;-69
2023/12/01 07:37:20;;;;;;;34.17;19.23;;;1.50;99.90;;;;;;5013949;28;20751;-69
2023/12/01 07:39:46;;;;;;;35.63;19.73;;;1.50;99.90;;;;;;5013572;28;20180;-69
2023/12/01 07:42:12;;;;;;;27.20;18.63;;;1.50;99.90;;;;;;5013746;28;20248;-69
2023/12/01 07:44:38;;;;;;;29.37;17.10;;;1.50;99.90;;;;;;5012745;28;20223;-69
2023/12/01 07:47:07;;;;;;;28.27;18.60;;;1.50;99.90;;;;;;5013616;28;20250;-69
2023/12/01 07:49:33;;;;;;;24.93;16.90;;;1.50;99.90;;;;;;5013867;28;20180;-70
2023/12/01 07:51:58;;;;;;;28.07;17.60;;;1.60;99.90;;;;;;5013641;28;20240;-70
2023/12/01 07:54:24;;;;;;;27.07;17.60;;;1.60;99.90;;;;;;5013666;28;20176;-70
2023/12/01 07:56:50;;;;;;;28.07;17.40;;;1.60;99.90;;;;;;5014345;28;20204;-69
2023/12/01 07:59:15;;;;;;;30.90;16.67;;;1.50;99.90;;;;;;5012436;28;20275;-70
2023/12/01 08:01:41;;;;;;;25.47;16.43;;;1.50;99.90;;;;;;5013360;28;20251;-70
2023/12/01 08:04:07;;;;;;;31.17;17.83;;;1.50;99.90;;;;;;5013342;28;20183;-69
2023/12/01 08:06:33;;;;;;;27.00;17.70;;;1.60;99.90;;;;;;5013583;28;20200;-69
2023/12/01 08:08:59;;;;;;;27.83;16.73;;;1.60;99.90;;;;;;5013465;28;20263;-70
2023/12/01 08:11:24;;;;;;;26.03;16.53;;;1.70;99.90;;;;;;5013879;28;20172;-70
2023/12/01 08:13:51;;;;;;;25.10;15.90;;;1.70;99.90;;;;;;5012923;28;20195;-69
2023/12/01 08:16:17;;;;;;;26.27;15.57;;;1.70;99.90;;;;;;5013095;28;20219;-69
2023/12/01 08:18:42;;;;;;;24.93;14.33;;;1.70;99.90;;;;;;5012962;28;20270;-69
2023/12/01 08:21:08;;;;;;;24.43;14.87;;;1.70;99.90;;;;;;5013015;28;20172;-69
2023/12/01 08:23:34;;;;;;;21.27;14.87;;;1.70;99.90;;;;;;5009220;28;20204;-70
2023/12/01 08:26:00;;;;;;;19.83;14.20;;;1.70;99.90;;;;;;5013302;28;20400;-70
2023/12/01 08:28:25;;;;;;;19.67;14.83;;;1.70;99.90;;;;;;5013558;28;20194;-70
2023/12/01 08:30:51;;;;;;;21.07;15.00;;;1.70;99.90;;;;;;5013238;28;20267;-70
2023/12/01 08:33:16;;;;;;;23.53;14.30;;;1.70;99.90;;;;;;5012876;28;20184;-70
2023/12/01 08:35:42;;;;;;;19.90;14.37;;;1.70;99.90;;;;;;5012721;28;20564;-70
2023/12/01 08:38:10;;;;;;;26.77;17.23;;;1.70;99.90;;;;;;5012796;28;20200;-70
2023/12/01 08:40:37;;;;;;;19.10;14.13;;;1.70;99.90;;;;;;5012636;28;20253;-69
2023/12/01 08:43:04;;;;;;;19.27;14.10;;;1.70;99.90;;;;;;5011858;28;20535;-70
2023/12/01 08:45:31;;;;;;;22.10;14.63;;;1.60;99.90;;;;;;5012602;28;20192;-70
2023/12/01 08:47:56;;;;;;;18.60;13.43;;;1.60;99.90;;;;;;5012510;28;20187;-70
2023/12/01 08:50:22;;;;;;;21.57;14.27;;;1.70;99.90;;;;;;5012619;28;20559;-69
2023/12/01 08:52:48;;;;;;;17.60;13.10;;;1.70;99.90;;;;;;5013212;28;20176;-70
2023/12/01 08:55:13;;;;;;;21.77;14.57;;;1.70;99.90;;;;;;5012307;28;20200;-70
2023/12/01 08:57:39;;;;;;;19.03;14.10;;;1.70;99.90;;;;;;5012991;28;20215;-70
2023/12/01 09:00:06;;;;;;;18.50;13.83;;;1.70;99.90;;;;;;5011488;28;20187;-69
2023/12/01 09:02:32;;;;;;;18.83;12.27;;;1.70;99.90;;;;;;5013130;28;20180;-70
2023/12/01 09:04:58;;;;;;;17.33;12.67;;;1.70;99.90;;;;;;5012494;28;20650;-70
2023/12/01 09:07:23;;;;;;;20.17;12.07;;;1.60;99.90;;;;;;5012330;28;20187;-69
2023/12/01 09:09:49;;;;;;;18.93;11.43;;;1.60;99.90;;;;;;5012457;28;20180;-69
2023/12/01 09:12:15;;;;;;;16.70;12.67;;;1.60;99.90;;;;;;5011724;28;20195;-69
2023/12/01 09:14:41;;;;;;;18.17;13.47;;;1.70;99.90;;;;;;5012294;28;20183;-70
2023/12/01 09:17:07;;;;;;;18.23;12.57;;;1.70;99.90;;;;;;5012047;28;20555;-69
2023/12/01 09:19:32;;;;;;;17.60;12.17;;;1.80;99.90;;;;;;5012464;28;20252;-69
2023/12/01 09:21:58;;;;;;;16.30;11.37;;;1.80;99.90;;;;;;5011922;28;20200;-69
2023/12/01 09:24:24;;;;;;;17.23;12.30;;;1.90;99.90;;;;;;5012279;28;20263;-69
2023/12/01 09:26:50;;;;;;;16.87;12.33;;;1.90;99.90;;;;;;5011737;28;20208;-68
2023/12/01 09:29:16;;;;;;;16.10;12.80;;;1.90;99.90;;;;;;5011861;28;20267;-69
2023/12/01 09:31:46;;;;;;;16.70;12.07;;;1.90;99.90;;;;;;5010568;28;20281;-69
2023/12/01 09:34:12;;;;;;;12.93;11.57;;;1.80;99.90;;;;;;5012468;28;20176;-69
2023/12/01 09:36:38;;;;;;;15.40;12.30;;;1.80;99.90;;;;;;5011911;28;20196;-69
2023/12/01 09:39:04;;;;;;;15.23;11.43;;;1.80;99.90;;;;;;5012093;28;20175;-69
2023/12/01 09:41:34;;;;;;;16.83;12.37;;;1.80;99.90;;;;;;5012025;28;20636;-69
2023/12/01 09:44:00;;;;;;;16.10;11.63;;;1.80;99.90;;;;;;5011539;28;20239;-68
2023/12/01 09:46:34;;;;;;;16.17;11.53;;;1.90;99.90;;;;;;5000780;28;20201;-69
2023/12/01 09:49:03;;;;;;;19.10;10.53;;;1.90;99.90;;;;;;4991947;28;20255;-69
2023/12/01 09:51:28;;;;;;;15.23;10.03;;;1.80;99.90;;;;;;5010942;28;20188;-69
2023/12/01 09:53:54;;;;;;;14.97;10.10;;;1.80;99.90;;;;;;5011646;28;20266;-69
2023/12/01 09:56:19;;;;;;;11.43;10.27;;;1.80;99.90;;;;;;5011328;28;20709;-69
2023/12/01 09:58:46;;;;;;;12.00;10.07;;;1.80;99.90;;;;;;5012081;28;20676;-69
2023/12/01 10:01:13;;;;;;;12.13;10.83;;;1.80;99.90;;;;;;5011620;28;20169;-69
2023/12/01 10:03:39;;;;;;;13.00;9.93;;;1.80;99.90;;;;;;5011842;28;20276;-69
2023/12/01 10:06:07;;;;;;;11.80;10.20;;;1.80;99.90;;;;;;5011782;28;20670;-69
2023/12/01 10:08:34;;;;;;;11.27;10.07;;;1.70;99.90;;;;;;5011285;28;20187;-69
2023/12/01 10:11:00;;;;;;;12.63;10.33;;;1.60;99.90;;;;;;5011459;28;20563;-69
2023/12/01 10:13:39;;;;;;;13.87;10.07;;;1.60;99.90;;;;;;5011630;28;20234;-69
2023/12/01 10:16:05;;;;;;;14.40;10.63;;;1.60;99.90;;;;;;5011628;28;20206;-69
2023/12/01 10:18:31;;;;;;;12.13;9.57;;;1.60;99.90;;;;;;5011350;28;20223;-69
2023/12/01 10:21:02;;;;;;;13.70;10.97;;;1.60;99.90;;;;;;5011669;28;20703;-69
2023/12/01 10:23:29;;;;;;;13.60;10.87;;;1.60;99.90;;;;;;5010643;28;20656;-69
2023/12/01 10:25:54;;;;;;;13.07;11.03;;;1.70;99.90;;;;;;5011537;28;20658;-68
2023/12/01 10:28:21;;;;;;;13.97;10.57;;;1.70;99.90;;;;;;5011932;28;20211;-69
2023/12/01 10:30:57;;;;;;;13.70;11.17;;;1.70;99.90;;;;;;5011749;28;20176;-69
2023/12/01 10:33:24;;;;;;;17.33;11.33;;;1.70;99.90;;;;;;5011548;28;20301;-69
2023/12/01 10:36:07;;;;;;;13.13;10.90;;;1.70;99.90;;;;;;5026631;28;20343;-69
2023/12/01 10:38:33;;;;;;;15.27;10.63;;;1.70;99.90;;;;;;5011222;28;20207;-69
2023/12/01 10:41:01;;;;;;;14.53;11.47;;;1.80;99.90;;;;;;5011585;28;20173;-69
2023/12/01 10:43:30;;;;;;;15.30;11.73;;;1.90;99.90;;;;;;5011416;28;20203;-69
2023/12/01 10:46:04;;;;;;;16.53;11.63;;;2.00;99.90;;;;;;5011289;28;20212;-69
2023/12/01 10:48:31;;;;;;;16.07;11.30;;;1.90;99.90;;;;;;5011613;28;20566;-69
2023/12/01 10:50:57;;;;;;;14.27;10.73;;;2.00;99.90;;;;;;5011068;28;20186;-68
2023/12/01 10:53:26;;;;;;;16.07;11.70;;;2.00;99.90;;;;;;5010048;28;20275;-69
2023/12/01 10:55:54;;;;;;;15.87;11.30;;;2.00;99.90;;;;;;5011835;28;20195;-69
2023/12/01 10:58:22;;;;;;;19.00;11.53;;;2.00;99.90;;;;;;5011298;28;20219;-68
2023/12/01 11:00:49;;;;;;;12.50;10.90;;;1.90;99.90;;;;;;5010843;28;20176;-69
2023/12/01 11:03:22;;;;;;;17.23;12.63;;;2.00;99.90;;;;;;5010576;28;20648;-69
2023/12/01 11:05:56;;;;;;;14.13;11.13;;;2.00;99.90;;;;;;5011078;28;20636;-69
2023/12/01 11:09:08;;;;;;;16.70;11.77;;;2.10;99.90;;;;;;5006065;28;20550;-69
2023/12/01 11:11:53;;;;;;;17.50;11.30;;;2.10;99.90;;;;;;4990594;28;20200;-69
2023/12/01 11:14:20;;;;;;;17.47;12.03;;;2.00;99.90;;;;;;4991412;28;20547;-69
2023/12/01 11:16:47;;;;;;;10.50;9.20;;;1.90;99.90;;;;;;4990911;28;20259;-68
2023/12/01 11:19:13;;;;;;;11.90;9.93;;;1.80;99.90;;;;;;5001874;28;20177;-69
2023/12/01 11:21:42;;;;;;;14.17;11.00;;;1.70;99.90;;;;;;5010688;28;20180;-69
2023/12/01 11:24:34;;;;;;;10.93;9.77;;;1.70;99.90;;;;;;5010653;28;20180;-69
2023/12/01 11:27:05;;;;;;;12.33;9.77;;;1.70;99.90;;;;;;5004832;28;20236;-68
2023/12/01 11:29:35;;;;;;;11.57;9.57;;;1.70;99.90;;;;;;4990273;28;20180;-69
2023/12/01 11:32:01;;;;;;;11.90;10.07;;;1.70;99.90;;;;;;4990915;28;20200;-69
2023/12/01 11:34:26;;;;;;;10.33;9.23;;;1.70;99.90;;;;;;4993437;28;20185;-69
2023/12/01 11:36:56;;;;;;;11.67;9.60;;;1.70;99.90;;;;;;4994840;28;20205;-69
2023/12/01 11:39:29;;;;;;;10.93;9.23;;;1.70;99.90;;;;;;4994677;28;20177;-69
2023/12/01 11:42:09;;;;;;;12.87;9.90;;;1.70;99.90;;;;;;5004982;28;20203;-69
2023/12/01 11:44:40;;;;;;;12.33;10.10;;;1.70;99.90;;;;;;5013798;28;20179;-69
2023/12/01 11:47:08;;;;;;;10.80;9.47;;;1.80;99.90;;;;;;5014407;28;20610;-69
2023/12/01 11:49:39;;;;;;;11.63;10.20;;;1.80;99.90;;;;;;5014332;28;20180;-69
2023/12/01 11:52:08;;;;;;;12.30;10.67;;;1.90;99.90;;;;;;5014041;28;20188;-69
2023/12/01 11:54:35;;;;;;;10.93;9.80;;;1.90;99.90;;;;;;5013502;28;20198;-69
2023/12/01 11:57:05;;;;;;;15.20;11.33;;;2.00;99.90;;;;;;5013853;28;20211;-69
2023/12/01 11:59:30;;;;;;;14.17;11.37;;;2.00;99.90;;;;;;5013308;28;20665;-69
2023/12/01 12:01:56;;;;;;;14.27;11.50;;;2.10;99.90;;;;;;5013187;28;20337;-69
2023/12/01 12:04:23;;;;;;;13.00;10.27;;;2.10;99.90;;;;;;5013662;28;20255;-69
2023/12/01 12:06:49;;;;;;;12.00;9.77;;;2.00;99.90;;;;;;5012216;28;20208;-69
2023/12/01 12:09:19;;;;;;;12.37;10.40;;;2.00;99.90;;;;;;5013621;28;20207;-70
2023/12/01 12:11:52;;;;;;;16.23;10.90;;;1.90;99.90;;;;;;5013626;28;20536;-69
2023/12/01 12:14:24;;;;;;;11.47;10.27;;;2.00;99.90;;;;;;5013974;28;20180;-69
2023/12/01 12:16:51;;;;;;;15.27;10.90;;;1.90;99.90;;;;;;5013988;28;20211;-69
2023/12/01 12:19:18;;;;;;;13.23;11.33;;;1.90;99.90;;;;;;5013596;28;20599;-69
2023/12/01 12:21:44;;;;;;;13.07;10.90;;;2.00;99.90;;;;;;5013525;28;20171;-69
2023/12/01 12:24:11;;;;;;;11.50;9.87;;;1.90;99.90;;;;;;5013065;28;20263;-69
2023/12/01 12:26:36;;;;;;;11.97;10.33;;;1.90;99.90;;;;;;5013357;28;20242;-69
2023/12/01 12:29:04;;;;;;;16.40;10.40;;;1.90;99.90;;;;;;5011799;28;20188;-69
2023/12/01 12:31:31;;;;;;;12.23;10.83;;;1.80;99.90;;;;;;5012862;28;20183;-69
2023/12/01 12:33:59;;;;;;;11.33;10.10;;;1.80;99.90;;;;;;5012335;28;20314;-70
2023/12/01 12:36:29;;;;;;;13.10;10.47;;;1.80;99.90;;;;;;5012915;28;20188;-69